Time;durP1;ratioP1;P1;durP2;ratioP2;P2;SDS_P1;SDS_P2;PMS_P1;PMS_P2;Temp;Humidity;BMP_temperature;BMP_pressure;BME280_temperature;BME280_humidity;BME280_pressure;Samples;Min_cycle;Max_cycle;Signal;HPM_P1;HPM_P2
2023/03/28 00:00:15;;;;;;;0.30;0.20;;;;;;;1.43;97.69;101238.72;4991406;28;20889;-54
2023/03/28 00:02:42;;;;;;;0.27;0.17;;;;;;;1.47;97.47;101240.56;4991104;28;20498;-54
2023/03/28 00:05:10;;;;;;;0.20;0.10;;;;;;;1.62;97.79;101237.41;4990915;28;21032;-53
2023/03/28 00:07:37;;;;;;;0.20;0.17;;;;;;;1.59;97.63;101239.97;4990800;28;20946;-54
2023/03/28 00:10:05;;;;;;;0.30;0.20;;;;;;;1.65;97.04;101249.72;4990916;28;21001;-53
2023/03/28 00:12:31;;;;;;;0.30;0.30;;;;;;;1.54;97.73;101244.22;4990805;28;20523;-55
2023/03/28 00:14:59;;;;;;;1.80;1.70;;;;;;;1.74;97.36;101245.53;4990960;28;20461;-54
2023/03/28 00:17:26;;;;;;;0.93;0.30;;;;;;;2.31;97.09;101247.63;4987782;28;20868;-53
2023/03/28 00:19:52;;;;;;;0.30;0.20;;;;;;;2.54;95.33;101248.09;4987851;28;20464;-55
2023/03/28 00:22:20;;;;;;;0.30;0.17;;;;;;;2.88;93.92;101254.00;4990420;28;20588;-54
2023/03/28 00:24:47;;;;;;;0.40;0.40;;;;;;;2.87;93.62;101255.72;4990664;28;20453;-54
2023/03/28 00:27:14;;;;;;;0.47;0.40;;;;;;;2.92;94.09;101258.44;4990722;28;20548;-53
2023/03/28 00:29:41;;;;;;;1.87;1.80;;;;;;;2.61;93.62;101255.25;4990628;28;20950;-54
2023/03/28 00:32:07;;;;;;;0.20;0.20;;;;;;;2.56;94.31;101259.50;4990523;28;20565;-53
2023/03/28 00:34:34;;;;;;;0.70;0.70;;;;;;;2.42;94.40;101260.97;4990593;28;20465;-55
2023/03/28 00:37:05;;;;;;;0.23;0.20;;;;;;;2.27;94.75;101261.56;4990482;28;20452;-54
2023/03/28 00:39:33;;;;;;;0.20;0.10;;;;;;;2.37;94.90;101268.78;4990649;28;20458;-52
2023/03/28 00:42:00;;;;;;;4.93;0.43;;;;;;;2.45;95.28;101271.53;4990289;28;21019;-53
2023/03/28 00:44:45;;;;;;;0.40;0.27;;;;;;;3.03;93.48;101264.78;4990175;28;20497;-51
2023/03/28 00:47:15;;;;;;;0.33;0.23;;;;;;;3.01;93.02;101274.34;4988927;28;20454;-52
2023/03/28 00:49:45;;;;;;;0.30;0.20;;;;;;;2.89;93.13;101266.28;4979653;28;20980;-52
2023/03/28 00:52:14;;;;;;;0.30;0.23;;;;;;;2.95;92.78;101274.25;4982843;28;20509;-52
2023/03/28 00:54:40;;;;;;;1.07;1.00;;;;;;;2.92;92.50;101274.19;4990631;28;20453;-53
2023/03/28 00:57:08;;;;;;;0.30;0.20;;;;;;;3.19;92.87;101271.19;4990152;28;20926;-52
2023/03/28 00:59:37;;;;;;;0.93;0.83;;;;;;;3.12;92.10;101271.91;4994532;28;20549;-52
2023/03/28 01:02:04;;;;;;;0.20;0.17;;;;;;;2.68;93.20;101272.00;4987134;28;20474;-54
2023/03/28 01:04:48;;;;;;;0.60;0.40;;;;;;;2.79;93.24;101261.69;4990047;28;20915;-54
2023/03/28 01:07:15;;;;;;;0.50;0.50;;;;;;;2.66;93.37;101263.22;4989886;28;20449;-54
2023/03/28 01:09:42;;;;;;;0.30;0.20;;;;;;;2.59;93.63;101262.19;4989827;28;20997;-54
2023/03/28 01:12:10;;;;;;;0.73;0.43;;;;;;;2.25;94.37;101275.50;4989833;28;20489;-53
2023/03/28 01:14:38;;;;;;;0.30;0.30;;;;;;;2.12;95.52;101270.84;4989777;28;20465;-54
2023/03/28 01:17:05;;;;;;;0.20;0.20;;;;;;;2.06;95.69;101280.38;4989731;28;20457;-54
2023/03/28 01:19:59;;;;;;;0.30;0.20;;;;;;;2.11;95.51;101276.94;4984128;28;20552;-53
2023/03/28 01:22:57;;;;;;;1.10;0.33;;;;;;;2.51;94.70;101278.66;4989833;28;20497;-54
2023/03/28 01:25:47;;;;;;;0.20;0.20;;;;;;;2.77;93.39;101287.94;4968735;28;20454;-55
2023/03/28 01:28:35;;;;;;;0.30;0.20;;;;;;;2.87;93.69;101283.72;4989775;28;20457;-54
2023/03/28 01:31:10;;;;;;;0.20;0.10;;;;;;;2.52;93.48;101286.56;4989452;28;20961;-54
2023/03/28 01:33:56;;;;;;;0.30;0.27;;;;;;;2.46;95.05;101280.28;4989760;28;20453;-55
2023/03/28 01:36:47;;;;;;;0.57;0.57;;;;;;;2.57;93.89;101284.91;4984496;28;20450;-54
2023/03/28 01:39:48;;;;;;;0.40;0.40;;;;;;;2.49;93.48;101283.00;4985501;28;20476;-54
2023/03/28 01:42:20;;;;;;;1.03;1.03;;;;;;;2.43;94.31;101286.34;4967875;28;20512;-54
2023/03/28 01:44:50;;;;;;;0.40;0.40;;;;;;;2.16;94.09;101281.41;4981793;28;20483;-54
2023/03/28 01:47:39;;;;;;;0.43;0.43;;;;;;;1.76;95.32;101292.75;4983678;28;20453;-54
2023/03/28 01:50:18;;;;;;;0.67;0.67;;;;;;;1.86;95.64;101302.59;4982431;28;20861;-54
2023/03/28 01:53:06;;;;;;;0.60;0.60;;;;;;;1.72;96.06;101296.16;4972130;28;20836;-54
2023/03/28 01:55:47;;;;;;;0.30;0.20;;;;;;;1.72;96.52;101304.91;4989837;28;20845;-54
2023/03/28 01:58:35;;;;;;;0.30;0.20;;;;;;;1.55;96.99;101294.88;4989357;28;21065;-53
2023/03/28 02:01:12;;;;;;;0.70;0.53;;;;;;;1.17;97.24;101297.44;4968027;28;20455;-54
2023/03/28 02:03:45;;;;;;;0.30;0.27;;;;;;;1.23;97.59;101294.06;4989250;28;20492;-54
2023/03/28 02:06:13;;;;;;;0.40;0.30;;;;;;;1.18;97.66;101293.97;4989496;28;20552;-54
2023/03/28 02:08:42;;;;;;;0.40;0.30;;;;;;;1.13;97.78;101286.00;4990784;28;20560;-54
2023/03/28 02:11:09;;;;;;;0.30;0.20;;;;;;;1.35;97.99;101281.28;4991212;28;20457;-55
2023/03/28 02:13:42;;;;;;;9.30;1.33;;;;;;;1.25;97.59;101288.03;4993461;28;20449;-53
2023/03/28 02:16:10;;;;;;;2.10;0.40;;;;;;;1.16;97.35;101291.31;4993419;28;20449;-54
2023/03/28 02:18:40;;;;;;;0.20;0.20;;;;;;;1.29;96.61;101282.03;4987467;28;20461;-54
2023/03/28 02:21:16;;;;;;;1.17;0.83;;;;;;;1.17;96.92;101279.09;4992805;28;20460;-54
2023/03/28 02:23:46;;;;;;;0.20;0.20;;;;;;;1.12;96.33;101281.63;4993357;28;20542;-54
2023/03/28 02:26:13;;;;;;;0.80;0.80;;;;;;;1.00;97.98;101288.25;4993183;28;20504;-54
2023/03/28 02:28:42;;;;;;;2.33;0.40;;;;;;;1.09;97.60;101286.75;4993158;28;20461;-54
2023/03/28 02:31:10;;;;;;;0.30;0.20;;;;;;;0.92;97.55;101285.44;4992964;28;20457;-55
2023/03/28 02:33:46;;;;;;;29.60;1.17;;;;;;;1.02;97.85;101286.56;4992622;28;20449;-54
2023/03/28 02:36:40;;;;;;;2.47;0.30;;;;;;;0.92;97.23;101279.31;4992891;28;20516;-54
2023/03/28 02:39:38;;;;;;;0.37;0.37;;;;;;;0.78;97.71;101284.16;4992500;28;20854;-54
2023/03/28 02:42:04;;;;;;;0.20;0.17;;;;;;;0.61;97.71;101281.09;4992625;28;20495;-55
2023/03/28 02:45:08;;;;;;;0.30;0.20;;;;;;;0.62;97.70;101279.38;4986631;28;20502;-54
2023/03/28 02:47:38;;;;;;;0.20;0.10;;;;;;;0.65;97.00;101282.06;4986403;28;20461;-54
2023/03/28 02:50:29;;;;;;;0.30;0.30;;;;;;;0.67;98.18;101288.22;4984529;28;20457;-55
2023/03/28 02:53:07;;;;;;;0.20;0.20;;;;;;;0.61;97.70;101288.94;4977808;28;20477;-54
2023/03/28 02:56:04;;;;;;;0.33;0.20;;;;;;;0.61;97.21;101285.44;4992327;28;20460;-54
2023/03/28 02:58:45;;;;;;;0.40;0.40;;;;;;;0.42;98.63;101282.31;4992252;28;20549;-54
2023/03/28 03:01:13;;;;;;;0.30;0.20;;;;;;;0.55;98.39;101283.56;4992583;28;20540;-55
2023/03/28 03:03:41;;;;;;;0.30;0.20;;;;;;;0.52;97.69;101283.44;4992208;28;20583;-54
2023/03/28 03:06:08;;;;;;;0.30;0.30;;;;;;;0.37;97.90;101286.53;4992433;28;20461;-55
2023/03/28 03:08:35;;;;;;;0.20;0.10;;;;;;;0.57;98.14;101287.09;4992460;28;20469;-55
2023/03/28 03:11:01;;;;;;;0.33;0.20;;;;;;;0.73;98.21;101281.44;4992040;28;20459;-55
2023/03/28 03:13:27;;;;;;;0.40;0.40;;;;;;;0.86;97.75;101273.06;4991958;28;20468;-55
2023/03/28 03:15:54;;;;;;;0.73;0.53;;;;;;;0.93;98.01;101279.34;4992208;28;20549;-56
2023/03/28 03:18:21;;;;;;;0.70;0.43;;;;;;;0.75;99.02;101277.13;4985972;28;20507;-55
2023/03/28 03:20:49;;;;;;;6.17;1.90;;;;;;;0.99;98.88;101276.03;4992042;28;20464;-56
2023/03/28 03:23:16;;;;;;;0.60;0.50;;;;;;;1.04;98.09;101279.63;4990903;28;20525;-54
2023/03/28 03:25:44;;;;;;;0.20;0.20;;;;;;;1.15;96.92;101272.94;4991631;28;20464;-56
2023/03/28 03:28:11;;;;;;;0.83;0.67;;;;;;;1.13;96.92;101267.66;4991894;28;20464;-55
2023/03/28 03:30:38;;;;;;;0.27;0.17;;;;;;;0.93;97.39;101281.06;4992274;28;21331;-55
2023/03/28 03:33:04;;;;;;;0.40;0.20;;;;;;;1.07;96.81;101282.31;4991877;28;20477;-55
2023/03/28 03:35:34;;;;;;;0.30;0.20;;;;;;;0.99;96.72;101273.41;4991806;28;20449;-55
2023/03/28 03:38:01;;;;;;;0.20;0.20;;;;;;;0.77;98.52;101278.06;4991381;28;20574;-55
2023/03/28 03:40:27;;;;;;;0.30;0.20;;;;;;;0.80;97.81;101279.84;4991617;28;20454;-55
2023/03/28 03:42:54;;;;;;;0.50;0.47;;;;;;;0.67;97.37;101285.59;4991492;28;20504;-54
2023/03/28 03:45:21;;;;;;;1.30;0.50;;;;;;;0.61;98.65;101286.34;4978899;28;20465;-55
2023/03/28 03:47:47;;;;;;;0.40;0.37;;;;;;;0.43;98.92;101285.81;4985650;28;20465;-55
2023/03/28 03:50:14;;;;;;;0.20;0.20;;;;;;;0.44;98.89;101283.25;4985046;28;20453;-55
2023/03/28 03:52:40;;;;;;;0.30;0.20;;;;;;;0.45;98.96;101286.75;4984074;28;20508;-55
2023/03/28 03:55:08;;;;;;;0.20;0.20;;;;;;;0.48;98.83;101292.06;4991389;28;20512;-54
2023/03/28 03:57:34;;;;;;;0.30;0.20;;;;;;;0.33;97.41;101296.84;4991468;28;20457;-55
2023/03/28 04:00:08;;;;;;;0.83;0.73;;;;;;;0.42;98.04;101292.78;4991201;28;20544;-55
2023/03/28 04:02:34;;;;;;;1.60;1.60;;;;;;;0.48;98.02;101286.84;4991362;28;20481;-55
2023/03/28 04:05:01;;;;;;;1.17;0.40;;;;;;;0.18;98.36;101292.97;4991112;28;20965;-55
2023/03/28 04:07:27;;;;;;;0.30;0.20;;;;;;;0.18;97.38;101305.13;4991717;28;20946;-55
2023/03/28 04:09:55;;;;;;;0.60;0.60;;;;;;;0.22;97.24;101305.25;4990946;28;20455;-55
2023/03/28 04:12:22;;;;;;;1.13;0.30;;;;;;;0.20;96.93;101299.09;4990929;28;20547;-55
2023/03/28 04:14:48;;;;;;;0.30;0.20;;;;;;;0.09;97.92;101308.34;4991359;28;20481;-55
2023/03/28 04:17:16;;;;;;;0.30;0.20;;;;;;;0.05;97.68;101301.28;4989505;28;20516;-55
2023/03/28 04:19:44;;;;;;;0.37;0.37;;;;;;;-0.06;97.20;101295.72;4987220;28;20577;-55
2023/03/28 04:22:11;;;;;;;0.50;0.50;;;;;;;-0.09;97.45;101308.69;4990712;28;20477;-55
2023/03/28 04:24:43;;;;;;;2.47;0.70;;;;;;;-0.02;97.22;101310.63;4990208;28;21033;-54
2023/03/28 04:27:10;;;;;;;0.67;0.67;;;;;;;-0.05;97.88;101302.72;4990915;28;20585;-54
2023/03/28 04:29:38;;;;;;;0.93;0.93;;;;;;;-0.17;97.91;101306.66;4990560;28;20457;-54
2023/03/28 04:32:05;;;;;;;0.30;0.20;;;;;;;0.85;96.68;101297.47;4990651;28;20484;-55
2023/03/28 04:34:32;;;;;;;0.20;0.20;;;;;;;0.30;94.48;101300.28;4990328;28;20857;-55
2023/03/28 04:37:00;;;;;;;0.20;0.20;;;;;;;0.08;96.02;101311.81;4990753;28;20493;-55
2023/03/28 04:39:28;;;;;;;0.20;0.10;;;;;;;-0.07;96.88;101304.41;4990639;28;20823;-55
2023/03/28 04:41:55;;;;;;;0.33;0.30;;;;;;;-0.04;97.29;101316.66;4990563;28;20477;-55
2023/03/28 04:44:22;;;;;;;0.20;0.20;;;;;;;-0.13;96.73;101312.06;4990145;28;20608;-54
2023/03/28 04:46:50;;;;;;;2.87;0.83;;;;;;;-0.19;96.82;101319.69;4990375;28;20461;-55
2023/03/28 04:49:16;;;;;;;5.30;0.67;;;;;;;-0.31;97.08;101319.28;4977849;28;20468;-54
2023/03/28 04:51:43;;;;;;;0.30;0.20;;;;;;;-0.32;97.93;101322.75;4984188;28;20530;-54
2023/03/28 04:54:10;;;;;;;0.30;0.27;;;;;;;-0.32;98.24;101328.84;4989045;28;20536;-54
2023/03/28 04:56:37;;;;;;;0.40;0.20;;;;;;;-0.46;98.21;101330.13;4990348;28;20544;-54
2023/03/28 04:59:03;;;;;;;3.80;0.70;;;;;;;-0.37;97.50;101329.56;4990491;28;21038;-54
2023/03/28 05:01:30;;;;;;;0.70;0.70;;;;;;;-0.38;97.60;101341.72;4989852;28;20508;-54
2023/03/28 05:03:56;;;;;;;0.30;0.30;;;;;;;-0.41;97.79;101341.63;4990220;28;20497;-55
2023/03/28 05:06:24;;;;;;;2.10;0.67;;;;;;;-0.30;97.78;101334.13;4990443;28;20772;-54
2023/03/28 05:08:51;;;;;;;0.63;0.63;;;;;;;-0.40;97.57;101347.75;4963889;28;20464;-54
2023/03/28 05:11:18;;;;;;;0.30;0.20;;;;;;;-0.39;97.52;101350.41;4989888;28;20556;-54
2023/03/28 05:13:45;;;;;;;0.73;0.67;;;;;;;-0.52;98.00;101347.34;4965409;28;20453;-54
2023/03/28 05:16:11;;;;;;;0.40;0.40;;;;;;;-0.56;98.41;101350.66;4989803;28;20464;-54
2023/03/28 05:18:37;;;;;;;0.37;0.37;;;;;;;-0.60;98.32;101354.91;4984122;28;20844;-55
2023/03/28 05:21:04;;;;;;;0.40;0.40;;;;;;;-0.66;98.37;101360.81;4989847;28;20568;-54
2023/03/28 05:23:31;;;;;;;0.20;0.20;;;;;;;-0.67;99.13;101363.38;4989984;28;20493;-54
2023/03/28 05:25:57;;;;;;;111.00;1.73;;;;;;;-0.69;98.80;101365.03;4989753;28;20457;-55
2023/03/28 05:28:24;;;;;;;0.73;0.70;;;;;;;-0.80;98.76;101367.28;4989675;28;20523;-54
2023/03/28 05:30:50;;;;;;;0.30;0.20;;;;;;;-0.79;98.71;101360.34;4989538;28;20457;-54
2023/03/28 05:33:17;;;;;;;0.20;0.20;;;;;;;-0.64;99.88;101360.88;4989750;28;20491;-54
2023/03/28 05:35:43;;;;;;;0.30;0.20;;;;;;;-0.66;98.91;101363.44;4989633;28;20453;-55
2023/03/28 05:38:10;;;;;;;0.20;0.20;;;;;;;-0.64;99.33;101368.69;4989829;28;20885;-55
2023/03/28 05:40:36;;;;;;;0.30;0.20;;;;;;;-0.49;99.29;101373.53;4989620;28;20461;-54
2023/03/28 05:43:03;;;;;;;0.30;0.20;;;;;;;-0.42;98.52;101378.13;4989488;28;20473;-55
2023/03/28 05:45:30;;;;;;;0.30;0.20;;;;;;;-0.55;99.20;101373.31;4978615;28;20470;-54
2023/03/28 05:47:56;;;;;;;0.30;0.20;;;;;;;-0.42;98.93;101381.63;4971851;28;20458;-54
2023/03/28 05:50:25;;;;;;;0.93;0.93;;;;;;;-0.34;99.35;101380.16;4991032;28;20453;-55
2023/03/28 05:52:51;;;;;;;8.70;2.20;;;;;;;-0.08;98.01;101382.72;4988996;28;20517;-55
2023/03/28 05:55:18;;;;;;;0.77;0.63;;;;;;;0.08;98.01;101382.38;4995789;28;21008;-54
2023/03/28 05:57:44;;;;;;;0.27;0.20;;;;;;;0.24;98.35;101382.00;4995894;28;20815;-54
2023/03/28 06:00:11;;;;;;;0.23;0.20;;;;;;;0.44;98.28;101377.41;4996169;28;20453;-55
2023/03/28 06:02:39;;;;;;;0.20;0.10;;;;;;;0.40;98.00;101377.25;4996050;28;20488;-55
2023/03/28 06:05:06;;;;;;;0.60;0.60;;;;;;;0.59;97.38;101380.47;4995670;28;20906;-54
2023/03/28 06:07:33;;;;;;;0.30;0.30;;;;;;;0.56;98.01;101374.25;4995864;28;20814;-55
2023/03/28 06:10:11;;;;;;;0.30;0.20;;;;;;;0.55;98.21;101370.75;4996540;28;20511;-55
2023/03/28 06:12:38;;;;;;;0.30;0.20;;;;;;;0.62;98.53;101377.03;4995786;28;20485;-54
2023/03/28 06:15:05;;;;;;;0.30;0.30;;;;;;;0.79;98.00;101380.13;4995866;28;20528;-54
2023/03/28 06:17:32;;;;;;;0.77;0.77;;;;;;;0.85;97.88;101390.78;4992132;28;20516;-54
2023/03/28 06:19:59;;;;;;;0.30;0.20;;;;;;;0.88;97.42;101381.28;4993164;28;21107;-54
2023/03/28 06:22:25;;;;;;;0.60;0.50;;;;;;;0.94;96.56;101387.53;4995804;28;20473;-55
2023/03/28 06:24:52;;;;;;;0.40;0.30;;;;;;;0.95;96.99;101384.06;4995314;28;21072;-54
2023/03/28 06:27:18;;;;;;;0.30;0.20;;;;;;;0.96;97.49;101388.47;4996085;28;20453;-54
2023/03/28 06:29:45;;;;;;;0.30;0.20;;;;;;;1.12;97.79;101378.47;4995928;28;20515;-54
2023/03/28 06:32:11;;;;;;;0.57;0.57;;;;;;;1.25;97.61;101382.31;4995828;28;20495;-54
2023/03/28 06:34:37;;;;;;;0.40;0.20;;;;;;;1.44;98.00;101388.91;4995589;28;20897;-54
2023/03/28 06:37:04;;;;;;;0.30;0.20;;;;;;;1.54;97.84;101379.56;4996207;28;20547;-55
2023/03/28 06:39:30;;;;;;;0.50;0.20;;;;;;;1.61;97.52;101389.34;4995262;28;20488;-54
2023/03/28 06:41:58;;;;;;;0.63;0.63;;;;;;;1.52;97.28;101387.38;4995796;28;20568;-55
2023/03/28 06:44:25;;;;;;;0.67;0.50;;;;;;;1.65;98.29;101397.34;4990135;28;20492;-54
2023/03/28 06:46:51;;;;;;;1.10;1.10;;;;;;;1.73;97.65;101398.41;4988102;28;20457;-54
2023/03/28 06:49:17;;;;;;;1.57;1.47;;;;;;;1.97;98.01;101386.75;4982827;28;20453;-54
2023/03/28 06:51:44;;;;;;;3.80;2.40;;;;;;;1.93;96.35;101395.41;4989593;28;20486;-55
2023/03/28 06:54:10;;;;;;;1.10;1.00;;;;;;;1.94;96.89;101390.19;4994368;28;20449;-54
2023/03/28 06:56:37;;;;;;;3.87;3.53;;;;;;;2.12;96.16;101391.47;4994056;28;20985;-55
2023/03/28 06:59:03;;;;;;;3.17;1.03;;;;;;;2.22;96.19;101391.72;4991711;28;20453;-55
2023/03/28 07:01:30;;;;;;;1.23;0.70;;;;;;;2.44;95.98;101382.59;4992418;28;20584;-54
2023/03/28 07:03:58;;;;;;;0.30;0.20;;;;;;;2.45;95.35;101389.59;4992297;28;20576;-55
2023/03/28 07:06:26;;;;;;;0.33;0.33;;;;;;;2.53;95.00;101390.66;4992351;28;20485;-56
2023/03/28 07:08:55;;;;;;;0.20;0.20;;;;;;;2.89;94.56;101397.56;4992324;28;20461;-53
2023/03/28 07:11:22;;;;;;;0.50;0.50;;;;;;;2.89;93.93;101393.19;4992282;28;20473;-54
2023/03/28 07:13:49;;;;;;;1.07;0.67;;;;;;;3.00;93.51;101392.50;4992410;28;20449;-54
2023/03/28 07:16:16;;;;;;;0.40;0.40;;;;;;;2.90;93.25;101396.69;4991946;28;20955;-54
2023/03/28 07:18:43;;;;;;;4.57;1.27;;;;;;;2.81;93.58;101404.38;4985743;28;20457;-53
2023/03/28 07:21:12;;;;;;;0.60;0.60;;;;;;;2.99;93.48;101410.00;4991521;28;20457;-53
2023/03/28 07:23:39;;;;;;;0.67;0.67;;;;;;;3.01;93.43;101416.16;4992057;28;20536;-53
2023/03/28 07:26:08;;;;;;;0.80;0.80;;;;;;;3.14;93.11;101422.53;4991833;28;20462;-52
2023/03/28 07:28:35;;;;;;;0.30;0.30;;;;;;;3.07;93.14;101426.81;4991863;28;20461;-54
2023/03/28 07:31:03;;;;;;;0.97;0.97;;;;;;;3.09;93.10;101426.84;4991633;28;20453;-54
2023/03/28 07:33:32;;;;;;;11.60;0.53;;;;;;;3.71;91.88;101425.41;4991807;28;20942;-53
2023/03/28 07:36:14;;;;;;;0.50;0.50;;;;;;;3.62;91.71;101426.97;4975356;28;20918;-52
2023/03/28 07:38:41;;;;;;;0.40;0.30;;;;;;;3.60;91.34;101428.69;4991797;28;20454;-53
2023/03/28 07:41:08;;;;;;;0.70;0.70;;;;;;;3.49;92.38;101439.88;4991491;28;20919;-54
2023/03/28 07:43:35;;;;;;;0.30;0.30;;;;;;;3.98;91.63;101430.25;4991639;28;20453;-54
2023/03/28 07:46:05;;;;;;;0.60;0.60;;;;;;;4.35;90.07;101429.06;4978228;28;20503;-54
2023/03/28 07:48:32;;;;;;;6.43;0.60;;;;;;;4.62;88.66;101430.31;4979732;28;20561;-54
2023/03/28 07:50:59;;;;;;;0.60;0.60;;;;;;;4.42;88.40;101423.03;4990869;28;20453;-53
2023/03/28 07:53:26;;;;;;;0.50;0.40;;;;;;;4.36;88.91;101437.84;4984414;28;21020;-54
2023/03/28 07:55:53;;;;;;;0.93;0.50;;;;;;;4.61;88.16;101428.56;4991044;28;20461;-54
2023/03/28 07:58:22;;;;;;;7.83;1.27;;;;;;;4.78;87.30;101429.66;4978577;28;20850;-53
2023/03/28 08:00:49;;;;;;;2.10;0.50;;;;;;;4.57;88.05;101432.03;4991079;28;20882;-53
2023/03/28 08:03:16;;;;;;;3.50;0.97;;;;;;;4.91;86.93;101433.34;4991343;28;20481;-53
2023/03/28 08:05:50;;;;;;;9.40;1.10;;;;;;;4.69;87.28;101434.84;4991124;28;20497;-53
2023/03/28 08:08:19;;;;;;;6.90;0.90;;;;;;;5.29;86.59;101433.81;4990840;28;20460;-53
2023/03/28 08:10:49;;;;;;;0.47;0.47;;;;;;;5.36;86.65;101446.22;4991337;28;20462;-54
2023/03/28 08:13:17;;;;;;;2.57;1.30;;;;;;;5.45;84.37;101435.75;4990697;28;20489;-53
2023/03/28 08:15:43;;;;;;;0.73;0.40;;;;;;;5.64;84.32;101440.38;4990880;28;20489;-54
2023/03/28 08:18:11;;;;;;;0.43;0.30;;;;;;;5.60;84.87;101441.19;4984341;28;20454;-54
2023/03/28 08:20:38;;;;;;;0.40;0.30;;;;;;;6.18;83.62;101433.84;4991108;28;20545;-54
2023/03/28 08:23:06;;;;;;;10.93;2.60;;;;;;;5.93;82.99;101439.78;4991017;28;20485;-54
2023/03/28 08:25:32;;;;;;;0.70;0.67;;;;;;;5.88;83.22;101438.81;4990553;28;20489;-54
2023/03/28 08:27:59;;;;;;;4.30;0.30;;;;;;;5.91;84.39;101439.78;4990608;28;20465;-55
2023/03/28 08:30:25;;;;;;;0.30;0.30;;;;;;;5.88;84.40;101438.81;4991066;28;20865;-52
2023/03/28 08:32:52;;;;;;;7.20;1.03;;;;;;;6.03;81.30;101439.00;4990859;28;20973;-51
2023/03/28 08:35:18;;;;;;;1.90;0.30;;;;;;;6.26;82.08;101435.66;4990662;28;20456;-52
2023/03/28 08:37:45;;;;;;;0.50;0.50;;;;;;;6.10;79.52;101445.22;4990502;28;20927;-52
2023/03/28 08:40:16;;;;;;;6.63;1.70;;;;;;;6.31;80.87;101447.16;4990386;28;20464;-53
2023/03/28 08:42:55;;;;;;;3.50;0.47;;;;;;;6.23;79.24;101442.69;4990697;28;20480;-52
2023/03/28 08:45:40;;;;;;;0.37;0.30;;;;;;;6.55;77.95;101434.09;4977868;28;20494;-53
2023/03/28 08:48:09;;;;;;;0.70;0.47;;;;;;;6.50;77.60;101444.63;4960427;28;20807;-51
2023/03/28 08:50:49;;;;;;;2.80;1.33;;;;;;;6.47;76.47;101441.09;4986379;28;20457;-54
2023/03/28 08:53:40;;;;;;;1.00;0.40;;;;;;;6.32;75.07;101436.59;4982843;28;20823;-53
2023/03/28 08:56:07;;;;;;;3.53;1.20;;;;;;;7.01;75.42;101439.63;4966932;28;20456;-51
2023/03/28 08:58:50;;;;;;;0.70;0.70;;;;;;;7.05;72.68;101442.28;4990176;28;21128;-52
2023/03/28 09:01:20;;;;;;;1.73;0.83;;;;;;;7.45;71.05;101438.91;4990165;28;20450;-52
2023/03/28 09:03:48;;;;;;;5.47;0.63;;;;;;;7.32;69.30;101430.06;4989977;28;20931;-52
2023/03/28 09:06:27;;;;;;;1.03;0.90;;;;;;;6.92;72.45;101432.53;4990277;28;20547;-53
2023/03/28 09:09:11;;;;;;;1.67;0.83;;;;;;;7.17;73.10;101425.59;4989819;28;20453;-51
2023/03/28 09:11:53;;;;;;;0.30;0.20;;;;;;;7.38;72.06;101428.28;4989740;28;20517;-51
2023/03/28 09:15:00;;;;;;;0.40;0.40;;;;;;;7.56;69.86;101435.41;4990438;28;20482;-53
2023/03/28 09:17:32;;;;;;;2.60;1.43;;;;;;;7.87;71.18;101435.47;4967747;28;20451;-53
2023/03/28 09:20:20;;;;;;;1.73;1.30;;;;;;;7.84;67.41;101440.75;4986670;28;20454;-52
2023/03/28 09:23:05;;;;;;;0.80;0.30;;;;;;;7.27;70.09;101432.69;4989733;28;20497;-53
2023/03/28 09:25:47;;;;;;;0.83;0.43;;;;;;;7.71;69.01;101434.56;4989735;28;20499;-53
2023/03/28 09:28:34;;;;;;;0.83;0.80;;;;;;;7.34;68.96;101423.88;4989697;28;20453;-50
2023/03/28 09:31:04;;;;;;;0.47;0.30;;;;;;;8.19;68.62;101427.50;4989700;28;20453;-53
2023/03/28 09:33:37;;;;;;;0.70;0.70;;;;;;;8.38;65.96;101433.72;4989682;28;20955;-51
2023/03/28 09:36:11;;;;;;;2.20;1.00;;;;;;;8.34;65.72;101432.81;4989579;28;20540;-51
2023/03/28 09:38:43;;;;;;;1.13;0.73;;;;;;;8.15;68.16;101420.47;4989751;28;20473;-52
2023/03/28 09:41:22;;;;;;;0.40;0.20;;;;;;;8.33;63.16;101420.44;4989556;28;20460;-52
2023/03/28 09:43:53;;;;;;;1.47;0.47;;;;;;;7.47;64.94;101413.34;4989461;28;20453;-51
2023/03/28 09:46:30;;;;;;;0.50;0.20;;;;;;;8.04;65.69;101412.50;4978088;28;21067;-53
2023/03/28 09:48:57;;;;;;;1.43;0.87;;;;;;;8.11;63.65;101418.72;4972488;28;20465;-52
2023/03/28 09:51:24;;;;;;;0.30;0.20;;;;;;;8.22;63.69;101415.19;4967202;28;21023;-51
2023/03/28 09:53:50;;;;;;;4.23;0.97;;;;;;;8.17;61.96;101416.91;4985935;28;20485;-52
2023/03/28 09:56:30;;;;;;;0.30;0.20;;;;;;;7.79;62.45;101411.63;4989514;28;20801;-51
2023/03/28 09:59:01;;;;;;;4.00;0.93;;;;;;;7.70;61.43;101412.50;4989295;28;20484;-53
2023/03/28 10:01:45;;;;;;;0.40;0.23;;;;;;;8.45;60.20;101408.97;4989454;28;20485;-52
2023/03/28 10:04:17;;;;;;;0.40;0.30;;;;;;;8.73;60.53;101402.72;4965600;28;20456;-53
2023/03/28 10:06:45;;;;;;;1.23;1.13;;;;;;;8.73;57.87;101404.50;4989323;28;20803;-53
2023/03/28 10:09:29;;;;;;;0.87;0.73;;;;;;;9.17;55.70;101393.69;4989676;28;20512;-52
2023/03/28 10:11:59;;;;;;;2.80;0.30;;;;;;;8.73;57.79;101397.41;4989042;28;20492;-52
2023/03/28 10:14:29;;;;;;;0.50;0.30;;;;;;;8.97;56.30;101395.56;4989415;28;20460;-52
2023/03/28 10:17:00;;;;;;;2.53;0.60;;;;;;;8.87;57.43;101392.06;4989263;28;20961;-52
2023/03/28 10:19:32;;;;;;;0.40;0.27;;;;;;;8.70;55.18;101393.91;4997257;28;20457;-52
2023/03/28 10:22:06;;;;;;;0.40;0.30;;;;;;;8.67;58.18;101388.63;4963130;28;21036;-52
2023/03/28 10:24:33;;;;;;;0.30;0.20;;;;;;;8.60;56.07;101388.63;4988906;28;20962;-52
2023/03/28 10:27:22;;;;;;;0.53;0.50;;;;;;;8.92;55.87;101387.66;4989516;28;20453;-52
2023/03/28 10:29:52;;;;;;;0.40;0.30;;;;;;;8.88;55.47;101386.75;4989107;28;20450;-53
2023/03/28 10:32:27;;;;;;;5.83;0.40;;;;;;;8.80;56.51;101382.38;4991293;28;20747;-52
2023/03/28 10:35:24;;;;;;;0.40;0.40;;;;;;;9.21;54.75;101379.56;4992617;28;20452;-52
2023/03/28 10:37:55;;;;;;;0.40;0.30;;;;;;;9.67;56.24;101365.97;4993133;28;20453;-52
2023/03/28 10:40:28;;;;;;;0.40;0.30;;;;;;;9.82;54.79;101378.25;4992582;28;20464;-52
2023/03/28 10:42:57;;;;;;;0.40;0.30;;;;;;;9.34;54.61;101372.41;4992659;28;20853;-52
2023/03/28 10:45:37;;;;;;;0.40;0.30;;;;;;;9.60;52.64;101364.28;4979308;28;21022;-52
2023/03/28 10:48:26;;;;;;;0.50;0.40;;;;;;;9.73;52.55;101372.13;4962577;28;20817;-53
2023/03/28 10:50:55;;;;;;;0.70;0.63;;;;;;;9.59;53.66;101367.78;4991434;28;20460;-52
2023/03/28 10:53:21;;;;;;;1.10;0.67;;;;;;;9.32;50.73;101368.84;4985345;28;20542;-52
2023/03/28 10:56:18;;;;;;;9.30;0.50;;;;;;;9.15;48.45;101367.19;4992141;28;20449;-53
2023/03/28 10:58:54;;;;;;;0.60;0.30;;;;;;;9.71;48.35;101357.97;4992632;28;20479;-52
2023/03/28 11:01:28;;;;;;;0.40;0.20;;;;;;;10.08;47.34;101349.69;4992274;28;20485;-53
2023/03/28 11:04:22;;;;;;;0.30;0.30;;;;;;;9.60;47.04;101345.69;4992057;28;21032;-52
2023/03/28 11:06:57;;;;;;;1.03;1.03;;;;;;;9.43;50.29;101349.31;4992036;28;20519;-53
2023/03/28 11:09:30;;;;;;;0.30;0.20;;;;;;;9.27;46.21;101339.72;4992125;28;20448;-52
2023/03/28 11:12:11;;;;;;;0.50;0.30;;;;;;;9.38;46.82;101337.88;4979653;28;20499;-52
2023/03/28 11:15:04;;;;;;;0.43;0.30;;;;;;;10.14;46.31;101333.69;4992201;28;20445;-52
2023/03/28 11:18:12;;;;;;;6.23;0.40;;;;;;;9.96;48.65;101336.50;4988780;28;20450;-52
2023/03/28 11:21:16;;;;;;;0.60;0.60;;;;;;;9.90;46.49;101331.28;4953877;28;20923;-54
2023/03/28 11:23:45;;;;;;;0.40;0.20;;;;;;;9.97;46.15;101327.66;4968573;28;20468;-52
2023/03/28 11:26:16;;;;;;;0.80;0.40;;;;;;;10.25;46.34;101322.97;4991842;28;20499;-52
2023/03/28 11:28:51;;;;;;;0.40;0.40;;;;;;;10.62;45.76;101321.66;4991901;28;21014;-52
2023/03/28 11:31:23;;;;;;;16.80;0.77;;;;;;;10.56;46.79;101305.81;4991781;28;20473;-52
2023/03/28 11:33:59;;;;;;;0.40;0.30;;;;;;;10.59;44.91;101299.56;4992263;28;20453;-52
2023/03/28 11:36:33;;;;;;;0.77;0.60;;;;;;;10.42;43.63;101298.91;4991727;28;20455;-52
2023/03/28 11:39:09;;;;;;;0.93;0.50;;;;;;;10.21;47.21;101292.91;4991667;28;20453;-52
2023/03/28 11:41:38;;;;;;;0.40;0.30;;;;;;;10.55;46.16;101292.50;4991293;28;20991;-53
2023/03/28 11:44:37;;;;;;;1.50;0.67;;;;;;;10.63;44.96;101280.00;4988502;28;20458;-52
2023/03/28 11:47:11;;;;;;;1.60;0.40;;;;;;;10.33;45.11;101281.28;4958224;28;20990;-54
2023/03/28 11:49:43;;;;;;;0.57;0.33;;;;;;;10.43;43.05;101276.72;4980074;28;20460;-54
2023/03/28 11:52:21;;;;;;;0.30;0.20;;;;;;;9.92;43.49;101274.59;4983791;28;20482;-54